createdAt,value
2022-12-06T00:00:26.630Z,5.10
2022-12-06T00:01:09.591Z,4.80
2022-12-06T00:01:46.037Z,4.88
2022-12-06T00:02:17.510Z,5.13
2022-12-06T00:02:49.077Z,4.80
2022-12-06T00:03:20.608Z,5.28
2022-12-06T00:03:54.776Z,5.25
2022-12-06T00:04:26.274Z,4.90
2022-12-06T00:04:57.638Z,5.63
2022-12-06T00:05:31.466Z,5.47
2022-12-06T00:06:10.912Z,4.70
2022-12-06T00:06:47.467Z,5.80
2022-12-06T00:07:18.881Z,5.60
2022-12-06T00:07:50.352Z,5.68
2022-12-06T00:08:21.888Z,5.20
2022-12-06T00:08:54.152Z,5.95
2022-12-06T00:09:28.541Z,5.45
2022-12-06T00:10:00.028Z,5.80
2022-12-06T00:10:35.070Z,5.05
2022-12-06T00:11:07.856Z,5.63
2022-12-06T00:11:39.260Z,5.68
2022-12-06T00:12:10.667Z,5.80
2022-12-06T00:12:42.147Z,4.80
2022-12-06T00:13:13.512Z,5.43
2022-12-06T00:13:46.172Z,5.82
2022-12-06T00:14:18.121Z,6.05
2022-12-06T00:14:49.550Z,6.30
2022-12-06T00:15:21.005Z,5.20
2022-12-06T00:15:52.544Z,5.30
2022-12-06T00:16:25.076Z,5.60
2022-12-06T00:16:56.640Z,5.43
2022-12-06T00:17:28.083Z,4.85
2022-12-06T00:17:59.490Z,6.13
2022-12-06T00:18:33.950Z,5.80
2022-12-06T00:19:06.279Z,5.38
2022-12-06T00:19:37.638Z,5.28
2022-12-06T00:20:10.055Z,5.50
2022-12-06T00:20:41.459Z,5.45
2022-12-06T00:21:21.500Z,5.35
2022-12-06T00:21:54.202Z,5.53
2022-12-06T00:22:25.538Z,4.57
2022-12-06T00:22:57.183Z,4.82
2022-12-06T00:23:31.621Z,5.28
2022-12-06T00:24:06.731Z,4.65
2022-12-06T00:24:39.706Z,4.18
2022-12-06T00:25:11.093Z,4.88
2022-12-06T00:25:42.519Z,5.40
2022-12-06T00:26:14.658Z,5.50
2022-12-06T00:26:47.712Z,4.82
2022-12-06T00:27:19.120Z,4.70
2022-12-06T00:27:50.981Z,4.88
2022-12-06T00:28:22.447Z,6.18
2022-12-06T00:28:59.278Z,5.20
2022-12-06T00:29:30.647Z,5.63
2022-12-06T00:30:02.576Z,5.68
2022-12-06T00:30:34.077Z,5.80
2022-12-06T00:31:08.075Z,4.90
2022-12-06T00:31:39.861Z,5.40
2022-12-06T00:32:16.088Z,5.65
2022-12-06T00:32:50.607Z,6.17
2022-12-06T00:33:22.049Z,5.32
2022-12-06T00:33:54.091Z,4.85
2022-12-06T00:34:25.743Z,5.20
2022-12-06T00:34:57.258Z,4.95
2022-12-06T00:35:28.704Z,7.00
2022-12-06T00:36:06.570Z,5.10
2022-12-06T00:36:40.479Z,5.13
2022-12-06T00:37:11.852Z,6.00
2022-12-06T00:37:43.284Z,4.57
2022-12-06T00:38:14.667Z,4.67
2022-12-06T00:38:46.993Z,5.50
2022-12-06T00:39:18.677Z,4.70
2022-12-06T00:39:50.098Z,4.60
2022-12-06T00:40:21.494Z,5.85
2022-12-06T00:41:11.291Z,5.20
2022-12-06T00:41:43.767Z,4.28
2022-12-06T00:42:15.110Z,4.68
2022-12-06T00:42:46.725Z,5.20
2022-12-06T00:43:18.082Z,5.40
2022-12-06T00:43:50.223Z,6.40
2022-12-06T00:44:21.707Z,5.43
2022-12-06T00:44:53.112Z,5.88
2022-12-06T00:45:24.687Z,5.40
2022-12-06T00:45:56.109Z,5.13
2022-12-06T00:46:32.165Z,4.95
2022-12-06T00:47:03.818Z,5.50
2022-12-06T00:47:35.198Z,5.43
2022-12-06T00:48:06.576Z,5.47
2022-12-06T00:48:38.035Z,4.88
2022-12-06T00:49:10.099Z,5.97
2022-12-06T00:49:41.461Z,6.25
2022-12-06T00:50:12.968Z,4.85
2022-12-06T00:50:44.446Z,4.95
2022-12-06T00:51:17.718Z,4.93
2022-12-06T00:51:49.082Z,5.97
2022-12-06T00:52:20.504Z,4.82
2022-12-06T00:52:51.942Z,6.22
2022-12-06T00:53:23.795Z,5.63
2022-12-06T00:53:55.694Z,5.28
2022-12-06T00:54:27.506Z,5.70
2022-12-06T00:54:58.896Z,5.35
2022-12-06T00:55:30.259Z,6.13
2022-12-06T00:56:02.200Z,5.57
2022-12-06T00:56:36.556Z,4.93
2022-12-06T00:57:08.011Z,5.38
2022-12-06T00:57:39.457Z,5.28
2022-12-06T00:58:11.660Z,5.13
2022-12-06T00:58:44.014Z,5.85
2022-12-06T00:59:16.264Z,4.95
2022-12-06T00:59:47.722Z,4.20
2022-12-06T01:00:19.522Z,4.95
2022-12-06T01:00:51.330Z,4.38
2022-12-06T01:01:28.458Z,6.00
2022-12-06T01:01:59.955Z,5.00
2022-12-06T01:02:31.434Z,5.88
2022-12-06T01:03:03.446Z,5.00
2022-12-06T01:03:35.568Z,5.35
2022-12-06T01:04:07.494Z,5.05
2022-12-06T01:04:38.945Z,5.25
2022-12-06T01:05:10.337Z,5.77
2022-12-06T01:05:43.681Z,4.93
2022-12-06T01:06:15.915Z,5.75
2022-12-06T01:06:47.357Z,5.85
2022-12-06T01:07:18.823Z,4.63
2022-12-06T01:07:50.359Z,5.28
2022-12-06T01:08:21.877Z,5.45
2022-12-06T01:08:55.019Z,5.00
2022-12-06T01:09:29.158Z,4.97
2022-12-06T01:10:00.836Z,4.85
2022-12-06T01:10:32.495Z,5.23
2022-12-06T01:11:05.146Z,4.82
2022-12-06T01:11:37.099Z,5.03
2022-12-06T01:12:08.508Z,5.45
2022-12-06T01:12:39.934Z,4.80
2022-12-06T01:13:11.381Z,4.80
2022-12-06T01:13:43.685Z,5.40
2022-12-06T01:14:15.129Z,4.88
2022-12-06T01:14:46.536Z,5.30
2022-12-06T01:15:17.995Z,5.38
2022-12-06T01:15:49.825Z,4.90
2022-12-06T01:16:25.911Z,5.25
2022-12-06T01:16:57.399Z,5.40
2022-12-06T01:17:28.954Z,5.95
2022-12-06T01:18:00.411Z,4.82
2022-12-06T01:18:31.843Z,5.28
2022-12-06T01:19:05.508Z,4.38
2022-12-06T01:19:36.920Z,6.22
2022-12-06T01:20:08.994Z,4.78
2022-12-06T01:20:40.611Z,4.78
2022-12-06T01:21:14.960Z,4.40
2022-12-06T01:21:48.533Z,4.85
2022-12-06T01:22:19.871Z,5.78
2022-12-06T01:22:51.235Z,4.90
2022-12-06T01:23:22.662Z,6.47
2022-12-06T01:23:57.163Z,4.97
2022-12-06T01:24:28.548Z,4.43
2022-12-06T01:24:59.899Z,5.40
2022-12-06T01:25:35.742Z,5.70
2022-12-06T01:27:03.362Z,4.33
2022-12-06T01:27:34.730Z,4.18
2022-12-06T01:28:06.118Z,5.50
2022-12-06T01:28:37.451Z,4.57
2022-12-06T01:29:11.049Z,5.28
2022-12-06T01:29:42.359Z,5.38
2022-12-06T01:30:14.191Z,4.78
2022-12-06T01:30:45.766Z,4.65
2022-12-06T01:31:17.640Z,4.20
2022-12-06T01:31:49.029Z,5.55
2022-12-06T01:32:20.427Z,4.53
2022-12-06T01:32:51.800Z,4.63
2022-12-06T01:33:23.430Z,4.57
2022-12-06T01:33:54.810Z,5.15
2022-12-06T01:34:26.154Z,5.00
2022-12-06T01:34:57.669Z,5.43
2022-12-06T01:35:29.014Z,5.20
2022-12-06T01:36:00.308Z,4.45
2022-12-06T01:36:31.945Z,5.60
2022-12-06T01:37:03.314Z,4.40
2022-12-06T01:37:34.876Z,5.00
2022-12-06T01:38:06.474Z,4.38
2022-12-06T01:38:37.950Z,5.40
2022-12-06T01:39:10.657Z,4.70
2022-12-06T01:39:42.244Z,4.68
2022-12-06T01:40:14.019Z,6.00
2022-12-06T01:40:47.710Z,4.75
2022-12-06T01:41:20.541Z,4.40
2022-12-06T01:41:51.908Z,5.15
2022-12-06T01:42:23.308Z,4.05
2022-12-06T01:42:54.636Z,4.70
2022-12-06T01:43:45.038Z,4.45
2022-12-06T01:44:45.470Z,5.65
2022-12-06T01:45:16.798Z,4.88
2022-12-06T01:45:48.216Z,3.90
2022-12-06T01:46:26.745Z,4.30
2022-12-06T01:46:58.194Z,3.95
2022-12-06T01:47:33.441Z,4.85
2022-12-06T01:48:05.123Z,4.60
2022-12-06T01:48:38.009Z,4.05
2022-12-06T01:49:12.004Z,4.50
2022-12-06T01:49:47.619Z,4.05
2022-12-06T01:50:24.394Z,4.57
2022-12-06T01:51:15.001Z,4.65
2022-12-06T01:51:50.925Z,4.35
2022-12-06T01:52:26.355Z,4.25
2022-12-06T01:53:04.013Z,4.63
2022-12-06T01:53:37.169Z,5.75
2022-12-06T01:54:13.522Z,5.10
2022-12-06T01:54:45.243Z,4.50
2022-12-06T01:55:18.657Z,4.23
2022-12-06T01:55:50.075Z,4.07
2022-12-06T01:56:22.056Z,4.00
2022-12-06T01:56:57.011Z,5.00
2022-12-06T01:57:30.175Z,5.10
2022-12-06T01:58:07.704Z,3.90
2022-12-06T01:58:41.370Z,5.20
2022-12-06T01:59:12.893Z,4.55
2022-12-06T01:59:45.090Z,4.68
2022-12-06T02:00:16.742Z,3.92
2022-12-06T02:00:48.144Z,4.10
2022-12-06T02:01:19.621Z,5.05
2022-12-06T02:01:51.359Z,4.35
2022-12-06T02:02:23.022Z,4.50
2022-12-06T02:02:58.831Z,5.28
2022-12-06T02:03:33.367Z,4.05
2022-12-06T02:04:06.166Z,4.55
2022-12-06T02:04:39.129Z,3.83
2022-12-06T02:05:12.963Z,4.80
2022-12-06T02:05:44.682Z,3.65
2022-12-06T02:06:17.618Z,4.43
2022-12-06T02:06:51.404Z,3.78
2022-12-06T02:07:24.435Z,4.35
2022-12-06T02:07:58.323Z,4.40
2022-12-06T02:08:30.188Z,4.40
2022-12-06T02:09:04.868Z,4.05
2022-12-06T02:09:36.876Z,3.80
2022-12-06T02:10:08.634Z,3.72
2022-12-06T02:10:40.117Z,4.43
2022-12-06T02:11:11.608Z,4.38
2022-12-06T02:11:43.740Z,4.37
2022-12-06T02:12:16.044Z,4.00
2022-12-06T02:12:52.287Z,4.57
2022-12-06T02:13:24.706Z,4.53
2022-12-06T02:13:56.420Z,4.38
2022-12-06T02:14:33.024Z,4.10
2022-12-06T02:15:05.125Z,4.28
2022-12-06T02:16:11.963Z,4.35
2022-12-06T02:17:12.222Z,4.43
2022-12-06T02:18:06.622Z,2.72
2022-12-06T02:18:49.802Z,3.73
2022-12-06T02:19:26.940Z,3.47
2022-12-06T02:20:05.117Z,4.20
2022-12-06T02:20:44.817Z,4.88
2022-12-06T02:21:28.972Z,3.70
2022-12-06T02:22:11.683Z,4.25
2022-12-06T02:23:24.955Z,4.07
2022-12-06T02:24:05.243Z,3.45
2022-12-06T02:24:59.095Z,3.63
2022-12-06T02:25:43.545Z,3.20
2022-12-06T02:26:39.144Z,4.20
2022-12-06T02:27:37.651Z,4.63
2022-12-06T02:28:31.558Z,3.85
2022-12-06T02:29:32.427Z,3.80
2022-12-06T02:30:34.679Z,4.03
2022-12-06T02:31:15.580Z,3.65
2022-12-06T02:31:58.252Z,3.25
2022-12-06T02:32:53.224Z,3.50
2022-12-06T02:33:47.951Z,3.45
2022-12-06T02:34:27.031Z,3.88
2022-12-06T02:35:31.874Z,4.20
2022-12-06T02:36:12.223Z,3.45
2022-12-06T02:36:59.026Z,4.35
2022-12-06T02:37:37.747Z,3.35
2022-12-06T02:38:17.510Z,4.57
2022-12-06T02:39:07.714Z,4.13
2022-12-06T02:39:51.578Z,3.88
2022-12-06T02:40:28.878Z,3.97
2022-12-06T02:41:12.950Z,3.80
2022-12-06T02:41:51.542Z,3.85
2022-12-06T02:42:27.090Z,4.17
2022-12-06T02:43:21.990Z,3.70
2022-12-06T02:44:00.384Z,3.90
2022-12-06T02:44:38.196Z,4.18
2022-12-06T02:45:14.607Z,4.07
2022-12-06T02:45:51.731Z,4.60
2022-12-06T02:46:29.614Z,4.22
2022-12-06T02:47:02.402Z,3.92
2022-12-06T02:47:37.056Z,3.80
2022-12-06T02:48:10.218Z,4.03
2022-12-06T02:48:45.406Z,4.33
2022-12-06T02:49:18.223Z,3.55
2022-12-06T02:49:50.299Z,4.32
2022-12-06T02:50:28.926Z,4.15
2022-12-06T02:51:08.321Z,4.40
2022-12-06T02:51:39.999Z,3.30
2022-12-06T02:52:13.352Z,3.80
2022-12-06T02:52:48.820Z,3.65
2022-12-06T02:53:22.202Z,4.55
2022-12-06T02:53:56.747Z,4.03
2022-12-06T02:54:29.748Z,3.47
2022-12-06T02:55:02.147Z,3.80
2022-12-06T02:55:34.290Z,4.70
2022-12-06T02:56:05.895Z,3.97
2022-12-06T02:56:37.239Z,3.85
2022-12-06T02:57:08.680Z,3.67
2022-12-06T02:57:45.871Z,4.35
2022-12-06T02:58:17.358Z,4.00
2022-12-06T02:58:48.761Z,4.07
2022-12-06T02:59:20.208Z,4.03
2022-12-06T02:59:54.704Z,3.83
2022-12-06T03:00:31.972Z,3.85
2022-12-06T03:01:16.535Z,3.97
2022-12-06T03:01:52.573Z,3.53
2022-12-06T03:02:24.387Z,4.47
2022-12-06T03:03:07.958Z,3.92
2022-12-06T03:03:54.835Z,3.55
2022-12-06T03:04:47.376Z,3.83
2022-12-06T03:05:32.644Z,3.15
2022-12-06T03:06:03.995Z,3.92
2022-12-06T03:06:51.559Z,3.10
2022-12-06T03:07:33.050Z,3.88
2022-12-06T03:08:12.143Z,4.13
2022-12-06T03:08:58.775Z,4.53
2022-12-06T03:09:52.437Z,3.60
2022-12-06T03:10:40.920Z,4.03
2022-12-06T03:11:12.503Z,3.70
2022-12-06T03:12:03.746Z,3.13
2022-12-06T03:12:48.761Z,3.60
2022-12-06T03:13:25.649Z,3.47
2022-12-06T03:14:03.931Z,3.80
2022-12-06T03:14:50.513Z,3.40
2022-12-06T03:15:43.070Z,3.33
2022-12-06T03:16:24.530Z,3.13
2022-12-06T03:17:05.371Z,3.67
2022-12-06T03:17:47.980Z,3.60
2022-12-06T03:18:32.560Z,3.67
2022-12-06T03:19:18.416Z,3.00
2022-12-06T03:19:58.708Z,3.65
2022-12-06T03:20:43.033Z,3.83
2022-12-06T03:21:19.986Z,3.20
2022-12-06T03:22:02.786Z,2.97
2022-12-06T03:22:40.234Z,3.30
2022-12-06T03:23:16.703Z,3.55
2022-12-06T03:23:50.653Z,3.33
2022-12-06T03:24:24.413Z,3.47
2022-12-06T03:24:56.575Z,3.67
2022-12-06T03:25:29.352Z,3.50
2022-12-06T03:26:02.146Z,3.72
2022-12-06T03:26:34.999Z,3.78
2022-12-06T03:27:12.333Z,2.90
2022-12-06T03:27:46.700Z,4.15
2022-12-06T03:28:20.552Z,3.65
2022-12-06T03:28:55.910Z,3.40
2022-12-06T03:29:31.423Z,3.60
2022-12-06T03:30:09.567Z,3.40
2022-12-06T03:30:45.813Z,3.35
2022-12-06T03:31:17.295Z,3.20
2022-12-06T03:31:49.881Z,3.95
2022-12-06T03:32:25.510Z,3.50
2022-12-06T03:32:57.261Z,3.33
2022-12-06T03:33:32.522Z,3.70
2022-12-06T03:34:11.189Z,3.25
2022-12-06T03:34:47.231Z,3.42
2022-12-06T03:35:26.653Z,4.05
2022-12-06T03:35:58.609Z,3.97
2022-12-06T03:36:31.930Z,3.80
2022-12-06T03:37:05.782Z,3.78
2022-12-06T03:37:39.636Z,4.00
2022-12-06T03:38:18.340Z,3.83
2022-12-06T03:38:55.020Z,3.70
2022-12-06T03:39:36.723Z,3.30
2022-12-06T03:40:16.644Z,3.25
2022-12-06T03:40:51.261Z,3.50
2022-12-06T03:41:28.058Z,4.57
2022-12-06T03:41:59.891Z,3.65
2022-12-06T03:42:32.051Z,3.55
2022-12-06T03:43:04.738Z,3.97
2022-12-06T03:43:36.226Z,4.00
2022-12-06T03:44:07.591Z,3.28
2022-12-06T03:44:38.942Z,3.40
2022-12-06T03:45:12.312Z,3.70
2022-12-06T03:45:56.077Z,3.30
2022-12-06T03:46:34.185Z,3.45
2022-12-06T03:47:16.040Z,3.20
2022-12-06T03:47:50.644Z,3.17
2022-12-06T03:48:29.166Z,3.40
2022-12-06T03:49:11.794Z,3.53
2022-12-06T03:49:48.354Z,4.05
2022-12-06T03:50:25.951Z,3.85
2022-12-06T03:51:23.014Z,3.00
2022-12-06T03:51:54.533Z,2.97
2022-12-06T03:52:29.019Z,4.60
2022-12-06T03:53:01.427Z,3.67
2022-12-06T03:53:33.512Z,3.30
2022-12-06T03:54:07.896Z,3.22
2022-12-06T03:54:40.675Z,3.13
2022-12-06T03:55:11.977Z,3.03
2022-12-06T03:55:43.420Z,3.28
2022-12-06T03:56:14.853Z,2.88
2022-12-06T03:56:46.265Z,3.40
2022-12-06T03:57:17.600Z,2.92
2022-12-06T03:57:48.910Z,3.97
2022-12-06T03:58:20.439Z,3.28
2022-12-06T03:58:52.176Z,4.13
2022-12-06T03:59:23.691Z,2.85
2022-12-06T03:59:55.034Z,3.47
2022-12-06T04:00:26.477Z,2.83
2022-12-06T04:01:04.637Z,3.33
2022-12-06T04:01:36.483Z,3.08
2022-12-06T04:02:07.959Z,2.80
2022-12-06T04:02:39.413Z,2.75
2022-12-06T04:03:10.738Z,3.85
2022-12-06T04:03:42.360Z,2.90
2022-12-06T04:04:14.121Z,2.60
2022-12-06T04:04:45.527Z,3.05
2022-12-06T04:05:16.906Z,3.22
2022-12-06T04:05:48.336Z,3.53
2022-12-06T04:06:19.735Z,3.13
2022-12-06T04:06:52.412Z,3.20
2022-12-06T04:07:23.763Z,3.33
2022-12-06T04:07:55.148Z,3.08
2022-12-06T04:08:26.523Z,3.10
2022-12-06T04:09:18.008Z,3.08
2022-12-06T04:09:52.157Z,3.38
2022-12-06T04:10:24.296Z,3.05
2022-12-06T04:10:55.810Z,2.60
2022-12-06T04:11:27.159Z,3.15
2022-12-06T04:11:58.475Z,2.78
2022-12-06T04:12:50.346Z,2.67
2022-12-06T04:13:21.739Z,3.10
2022-12-06T04:13:53.171Z,3.05
2022-12-06T04:14:32.231Z,2.83
2022-12-06T04:15:05.742Z,2.97
2022-12-06T04:15:39.136Z,2.95
2022-12-06T04:16:29.734Z,2.80
2022-12-06T04:17:19.595Z,2.75
2022-12-06T04:18:09.647Z,2.85
2022-12-06T04:18:40.934Z,4.03
2022-12-06T04:19:12.263Z,3.10
2022-12-06T04:19:48.071Z,3.10
2022-12-06T04:20:22.256Z,2.63
2022-12-06T04:21:22.883Z,2.75
2022-12-06T04:22:12.844Z,3.85
2022-12-06T04:23:02.735Z,3.22
2022-12-06T04:23:37.480Z,2.80
2022-12-06T04:24:08.841Z,3.05
2022-12-06T04:24:40.258Z,3.15
2022-12-06T04:25:11.578Z,3.00
2022-12-06T04:25:42.969Z,2.78
2022-12-06T04:26:17.812Z,3.27
2022-12-06T04:26:49.126Z,3.33
2022-12-06T04:27:38.634Z,3.47
2022-12-06T04:28:28.678Z,3.70
2022-12-06T04:29:18.699Z,3.10
2022-12-06T04:30:08.601Z,3.08
2022-12-06T04:30:58.350Z,2.72
2022-12-06T04:31:48.477Z,2.90
2022-12-06T04:32:38.323Z,3.00
2022-12-06T04:33:28.403Z,2.83
2022-12-06T04:34:18.574Z,2.73
2022-12-06T04:35:08.316Z,2.90
2022-12-06T04:35:58.058Z,2.67
2022-12-06T04:36:47.708Z,3.10
2022-12-06T04:37:37.628Z,2.47
2022-12-06T04:38:27.449Z,2.40
2022-12-06T04:38:59.070Z,2.85
2022-12-06T04:39:30.563Z,2.58
2022-12-06T04:40:02.452Z,3.33
2022-12-06T04:40:33.959Z,2.83
2022-12-06T04:41:06.478Z,2.60
2022-12-06T04:41:56.429Z,2.60
2022-12-06T04:42:46.363Z,2.53
2022-12-06T04:43:36.440Z,3.10
2022-12-06T04:44:08.119Z,3.50
2022-12-06T04:44:39.810Z,2.92
2022-12-06T04:45:11.515Z,3.22
2022-12-06T04:45:42.944Z,2.35
2022-12-06T04:46:18.028Z,4.82
2022-12-06T04:46:49.375Z,2.58
2022-12-06T04:47:20.974Z,2.50
2022-12-06T04:47:52.349Z,3.22
2022-12-06T04:48:23.771Z,2.35
2022-12-06T04:48:55.422Z,3.03
2022-12-06T04:49:26.874Z,2.70
2022-12-06T04:49:58.442Z,3.03
2022-12-06T04:50:30.094Z,3.03
2022-12-06T04:51:01.464Z,2.45
2022-12-06T04:51:33.445Z,3.00
2022-12-06T04:52:06.467Z,2.88
2022-12-06T04:52:37.902Z,2.20
2022-12-06T04:53:09.198Z,2.45
2022-12-06T04:53:40.542Z,3.20
2022-12-06T04:54:12.011Z,3.40
2022-12-06T04:54:43.424Z,2.50
2022-12-06T04:55:15.254Z,2.80
2022-12-06T04:55:48.177Z,2.97
2022-12-06T04:56:19.672Z,2.60
2022-12-06T04:56:51.261Z,2.72
2022-12-06T04:57:22.669Z,2.80
2022-12-06T04:57:54.862Z,2.87
2022-12-06T04:58:26.188Z,2.53
2022-12-06T04:58:57.722Z,2.92
2022-12-06T04:59:29.501Z,2.70
2022-12-06T05:00:01.164Z,3.08
2022-12-06T05:00:32.823Z,2.28
2022-12-06T05:01:04.447Z,2.83
2022-12-06T05:01:35.814Z,2.65
2022-12-06T05:02:10.017Z,2.88
2022-12-06T05:02:41.350Z,2.50
2022-12-06T05:04:03.500Z,2.83
2022-12-06T05:04:34.931Z,2.53
2022-12-06T05:05:06.936Z,3.33
2022-12-06T05:05:39.091Z,3.03
2022-12-06T05:06:10.726Z,2.75
2022-12-06T05:06:42.118Z,2.78
2022-12-06T05:07:13.830Z,2.97
2022-12-06T05:07:45.180Z,2.35
2022-12-06T05:08:16.675Z,2.45
2022-12-06T05:08:48.230Z,2.40
2022-12-06T05:09:19.627Z,2.30
2022-12-06T05:09:50.982Z,2.95
2022-12-06T05:10:22.345Z,2.38
2022-12-06T05:10:53.695Z,1.92
2022-12-06T05:11:25.109Z,2.45
2022-12-06T05:11:56.545Z,2.60
2022-12-06T05:12:27.931Z,2.63
2022-12-06T05:13:00.841Z,2.85
2022-12-06T05:13:32.177Z,2.30
2022-12-06T05:14:04.009Z,2.97
2022-12-06T05:14:35.458Z,2.20
2022-12-06T05:15:07.231Z,2.60
2022-12-06T05:15:38.643Z,2.60
2022-12-06T05:16:10.172Z,2.78
2022-12-06T05:16:41.767Z,2.20
2022-12-06T05:17:13.148Z,2.63
2022-12-06T05:17:44.487Z,1.98
2022-12-06T05:18:15.820Z,2.55
2022-12-06T05:18:47.283Z,2.33
2022-12-06T05:19:18.817Z,2.47
2022-12-06T05:19:50.911Z,2.20
2022-12-06T05:20:22.528Z,2.15
2022-12-06T05:21:17.502Z,2.33
2022-12-06T05:21:48.855Z,2.72
2022-12-06T05:22:20.205Z,2.65
2022-12-06T05:22:51.590Z,2.35
2022-12-06T05:23:24.338Z,2.45
2022-12-06T05:23:56.556Z,3.30
2022-12-06T05:24:27.878Z,2.55
2022-12-06T05:24:59.229Z,3.00
2022-12-06T05:25:30.529Z,2.42
2022-12-06T05:26:11.318Z,2.35
2022-12-06T05:27:01.429Z,2.80
2022-12-06T05:27:36.182Z,2.47
2022-12-06T05:28:08.977Z,2.75
2022-12-06T05:28:40.890Z,2.15
2022-12-06T05:29:12.255Z,1.90
2022-12-06T05:29:43.566Z,3.30
2022-12-06T05:30:15.071Z,2.47
2022-12-06T05:30:46.426Z,2.10
2022-12-06T05:31:18.821Z,2.10
2022-12-06T05:31:50.305Z,2.47
2022-12-06T05:32:21.744Z,2.08
2022-12-06T05:32:56.965Z,2.67
2022-12-06T05:33:29.100Z,2.40
2022-12-06T05:34:00.555Z,2.38
2022-12-06T05:34:31.941Z,2.55
2022-12-06T05:35:03.387Z,2.83
2022-12-06T05:35:34.680Z,2.20
2022-12-06T05:36:09.477Z,3.57
2022-12-06T05:36:41.039Z,2.65
2022-12-06T05:37:12.471Z,2.28
2022-12-06T05:37:44.808Z,3.10
2022-12-06T05:38:16.347Z,2.65
2022-12-06T05:38:51.641Z,2.10
2022-12-06T05:39:23.307Z,2.40
2022-12-06T05:39:54.720Z,2.70
2022-12-06T05:40:26.058Z,3.05
2022-12-06T05:40:57.377Z,2.28
2022-12-06T05:41:28.747Z,2.23
2022-12-06T05:42:00.097Z,1.88
2022-12-06T05:42:31.542Z,2.20
2022-12-06T05:43:02.925Z,2.70
2022-12-06T05:43:34.719Z,2.33
2022-12-06T05:44:06.157Z,1.85
2022-12-06T05:44:37.544Z,2.53
2022-12-06T05:45:10.025Z,2.60
2022-12-06T05:45:41.698Z,2.45
2022-12-06T05:46:13.113Z,1.85
2022-12-06T05:46:44.569Z,2.23
2022-12-06T05:47:15.909Z,2.55
2022-12-06T05:47:47.271Z,2.17
2022-12-06T05:48:18.808Z,3.05
2022-12-06T05:48:50.147Z,2.15
2022-12-06T05:49:21.601Z,3.40
2022-12-06T05:49:53.033Z,2.53
2022-12-06T05:50:24.342Z,2.35
2022-12-06T05:50:55.955Z,3.17
2022-12-06T05:51:27.350Z,2.45
2022-12-06T05:52:03.790Z,2.07
2022-12-06T05:52:35.647Z,2.75
2022-12-06T05:53:07.016Z,2.47
2022-12-06T05:53:39.355Z,2.13
2022-12-06T05:54:10.733Z,2.72
2022-12-06T05:54:42.178Z,2.72
2022-12-06T05:55:13.576Z,2.53
2022-12-06T05:55:45.008Z,2.35
2022-12-06T05:56:16.408Z,2.92
2022-12-06T05:56:49.995Z,2.00
2022-12-06T05:57:21.395Z,2.10
2022-12-06T05:57:53.225Z,2.58
2022-12-06T05:58:24.670Z,2.35
2022-12-06T05:58:56.087Z,3.03
2022-12-06T05:59:27.468Z,3.15
2022-12-06T05:59:59.175Z,2.83
2022-12-06T06:00:31.036Z,2.15
2022-12-06T06:01:02.665Z,3.17
2022-12-06T06:01:34.191Z,2.55
2022-12-06T06:02:05.738Z,1.70
2022-12-06T06:02:37.262Z,2.13
2022-12-06T06:03:08.737Z,2.42
2022-12-06T06:03:46.923Z,2.38
2022-12-06T06:04:18.961Z,2.47
2022-12-06T06:04:50.338Z,2.75
2022-12-06T06:05:21.834Z,2.08
2022-12-06T06:05:57.260Z,2.70
2022-12-06T06:06:28.940Z,2.03
2022-12-06T06:07:00.479Z,2.80
2022-12-06T06:07:31.847Z,1.73
2022-12-06T06:08:03.389Z,2.17
2022-12-06T06:08:34.817Z,3.00
2022-12-06T06:09:06.211Z,2.00
2022-12-06T06:09:37.526Z,2.53
2022-12-06T06:10:09.124Z,2.22
2022-12-06T06:10:40.586Z,2.08
2022-12-06T06:11:12.030Z,2.42
2022-12-06T06:12:02.095Z,2.13
2022-12-06T06:12:33.540Z,2.35
2022-12-06T06:13:04.898Z,2.00
2022-12-06T06:13:36.326Z,2.17
2022-12-06T06:14:07.658Z,1.98
2022-12-06T06:14:39.061Z,3.10
2022-12-06T06:15:14.234Z,2.40
2022-12-06T06:15:45.811Z,2.40
2022-12-06T06:16:35.790Z,2.78
2022-12-06T06:17:07.324Z,2.15
2022-12-06T06:17:39.115Z,2.38
2022-12-06T06:18:10.439Z,2.35
2022-12-06T06:18:42.054Z,2.30
2022-12-06T06:19:13.497Z,2.40
2022-12-06T06:19:50.031Z,2.60
2022-12-06T06:20:22.740Z,2.58
2022-12-06T06:20:57.610Z,3.22
2022-12-06T06:21:28.962Z,2.50
2022-12-06T06:22:00.311Z,2.70
2022-12-06T06:22:33.858Z,3.00
2022-12-06T06:23:05.198Z,2.65
2022-12-06T06:23:36.599Z,2.05
2022-12-06T06:24:08.103Z,2.00
2022-12-06T06:24:41.339Z,2.30
2022-12-06T06:25:12.864Z,2.45
2022-12-06T06:25:44.251Z,2.33
2022-12-06T06:26:15.659Z,3.55
2022-12-06T06:26:47.055Z,2.85
2022-12-06T06:27:18.489Z,2.60
2022-12-06T06:27:49.878Z,2.70
2022-12-06T06:28:21.639Z,3.00
2022-12-06T06:28:53.074Z,2.53
2022-12-06T06:29:25.150Z,2.92
2022-12-06T06:29:56.528Z,2.23
2022-12-06T06:30:28.090Z,2.65
2022-12-06T06:31:03.578Z,2.80
2022-12-06T06:31:35.471Z,2.40
2022-12-06T06:32:06.955Z,2.80
2022-12-06T06:32:38.696Z,3.28
2022-12-06T06:33:10.436Z,2.65
2022-12-06T06:33:41.824Z,2.70
2022-12-06T06:34:13.151Z,2.55
2022-12-06T06:34:44.463Z,3.03
2022-12-06T06:35:15.963Z,2.67
2022-12-06T06:35:47.643Z,2.78
2022-12-06T06:36:19.049Z,2.60
2022-12-06T06:36:50.471Z,2.80
2022-12-06T06:37:21.857Z,2.22
2022-12-06T06:37:53.237Z,3.22
2022-12-06T06:38:24.680Z,2.33
2022-12-06T06:38:56.040Z,2.97
2022-12-06T06:39:27.710Z,2.88
2022-12-06T06:40:00.516Z,2.03
2022-12-06T06:40:32.280Z,2.63
2022-12-06T06:41:22.989Z,3.20
2022-12-06T06:41:54.536Z,2.70
2022-12-06T06:42:25.919Z,2.33
2022-12-06T06:42:57.781Z,2.67
2022-12-06T06:43:30.343Z,2.53
2022-12-06T06:44:01.696Z,2.63
2022-12-06T06:44:33.074Z,2.75
2022-12-06T06:45:05.289Z,2.63
2022-12-06T06:45:36.695Z,2.78
2022-12-06T06:46:08.331Z,2.70
2022-12-06T06:46:39.781Z,3.30
2022-12-06T06:47:11.788Z,3.10
2022-12-06T06:47:43.204Z,3.05
2022-12-06T06:48:14.576Z,2.78
2022-12-06T06:48:46.095Z,2.17
2022-12-06T06:49:18.679Z,2.95
2022-12-06T06:49:50.366Z,2.60
2022-12-06T06:50:21.725Z,2.95
2022-12-06T06:50:57.227Z,2.55
2022-12-06T06:51:31.629Z,2.60
2022-12-06T06:52:03.171Z,2.65
2022-12-06T06:52:34.808Z,2.65
2022-12-06T06:53:06.891Z,2.40
2022-12-06T06:53:39.188Z,3.40
2022-12-06T06:54:11.010Z,2.28
2022-12-06T06:54:42.315Z,2.40
2022-12-06T06:55:13.734Z,2.60
2022-12-06T06:55:46.215Z,2.38
2022-12-06T06:56:17.523Z,2.75
2022-12-06T06:56:49.571Z,2.60
2022-12-06T06:57:20.892Z,2.20
2022-12-06T06:57:52.216Z,2.47
2022-12-06T06:58:24.152Z,3.15
2022-12-06T06:58:55.639Z,3.15
2022-12-06T06:59:27.066Z,2.17
2022-12-06T06:59:58.684Z,2.65
2022-12-06T07:00:30.616Z,2.67
2022-12-06T07:01:04.251Z,3.08
2022-12-06T07:01:35.838Z,2.50
2022-12-06T07:02:07.360Z,2.50
2022-12-06T07:02:39.693Z,2.40
2022-12-06T07:03:20.022Z,3.72
2022-12-06T07:03:54.358Z,2.53
2022-12-06T07:04:25.716Z,2.53
2022-12-06T07:04:57.153Z,2.63
2022-12-06T07:05:28.560Z,2.65
2022-12-06T07:06:02.374Z,2.65
2022-12-06T07:06:33.715Z,2.63
2022-12-06T07:07:05.119Z,3.10
2022-12-06T07:07:36.737Z,2.57
2022-12-06T07:08:08.199Z,2.30
2022-12-06T07:08:41.672Z,2.78
2022-12-06T07:09:13.082Z,3.20
2022-12-06T07:09:44.614Z,2.72
2022-12-06T07:10:16.295Z,2.70
2022-12-06T07:10:48.775Z,3.38
2022-12-06T07:11:20.139Z,2.90
2022-12-06T07:11:53.282Z,2.85
2022-12-06T07:12:24.825Z,2.80
2022-12-06T07:12:56.243Z,3.10
2022-12-06T07:13:28.953Z,2.83
2022-12-06T07:14:02.470Z,2.92
2022-12-06T07:14:33.972Z,2.60
2022-12-06T07:15:06.668Z,3.95
2022-12-06T07:15:37.961Z,3.13
2022-12-06T07:16:15.578Z,2.60
2022-12-06T07:16:46.994Z,2.67
2022-12-06T07:17:18.583Z,4.15
2022-12-06T07:17:51.445Z,2.63
2022-12-06T07:18:22.810Z,3.23
2022-12-06T07:18:54.260Z,3.13
2022-12-06T07:19:25.602Z,2.95
2022-12-06T07:19:56.901Z,3.50
2022-12-06T07:20:28.670Z,2.80
2022-12-06T07:21:07.667Z,2.85
2022-12-06T07:21:39.690Z,2.53
2022-12-06T07:22:11.353Z,3.30
2022-12-06T07:22:42.726Z,3.75
2022-12-06T07:23:14.577Z,2.85
2022-12-06T07:23:46.495Z,3.10
2022-12-06T07:24:18.040Z,2.88
2022-12-06T07:24:52.552Z,2.78
2022-12-06T07:25:24.149Z,2.97
2022-12-06T07:26:09.857Z,2.78
2022-12-06T07:26:41.214Z,2.22
2022-12-06T07:27:12.602Z,3.03
2022-12-06T07:27:43.941Z,2.85
2022-12-06T07:28:15.238Z,3.35
2022-12-06T07:28:49.242Z,2.70
2022-12-06T07:29:20.543Z,2.80
2022-12-06T07:29:51.914Z,2.58
2022-12-06T07:30:27.389Z,2.95
2022-12-06T07:31:07.006Z,3.13
2022-12-06T07:31:40.147Z,2.75
2022-12-06T07:32:11.530Z,2.72
2022-12-06T07:32:42.898Z,3.45
2022-12-06T07:33:14.208Z,3.33
2022-12-06T07:33:46.518Z,2.88
2022-12-06T07:34:17.879Z,3.15
2022-12-06T07:34:49.377Z,3.03
2022-12-06T07:35:20.770Z,2.90
2022-12-06T07:36:44.964Z,2.85
2022-12-06T07:37:18.982Z,2.90
2022-12-06T07:37:50.398Z,2.42
2022-12-06T07:38:21.827Z,2.63
2022-12-06T07:38:55.431Z,2.85
2022-12-06T07:39:26.877Z,2.78
2022-12-06T07:39:58.718Z,3.22
2022-12-06T07:40:55.984Z,3.00
2022-12-06T07:41:41.994Z,3.22
2022-12-06T07:42:31.910Z,2.60